Time;durP1;ratioP1;P1;durP2;ratioP2;P2;SDS_P1;SDS_P2;PMS_P1;PMS_P2;Temp;Humidity;BMP_temperature;BMP_pressure;BME280_temperature;BME280_humidity;BME280_pressure;Samples;Min_cycle;Max_cycle;Signal;HPM_P1;HPM_P2
2021/05/21 00:00:41;;;;;;;1.23;0.50;;;;;;;9.92;42.80;92892.31;4970135;28;20097;-76
2021/05/21 00:03:07;;;;;;;1.83;0.70;;;;;;;9.89;42.85;92900.69;4954885;29;20047;-76
2021/05/21 00:05:33;;;;;;;2.85;0.63;;;;;;;9.88;42.90;92896.50;4937387;29;20031;-75
2021/05/21 00:07:59;;;;;;;1.70;0.60;;;;;;;9.85;43.29;92891.06;4921948;29;20051;-77
2021/05/21 00:10:25;;;;;;;1.85;0.70;;;;;;;9.81;43.51;92885.56;4937432;29;20051;-74
2021/05/21 00:12:51;;;;;;;0.82;0.50;;;;;;;9.79;43.31;92882.44;4937505;29;20039;-75
2021/05/21 00:15:18;;;;;;;3.97;0.75;;;;;;;9.77;43.21;92884.53;4954476;29;20083;-76
2021/05/21 00:17:43;;;;;;;1.77;0.63;;;;;;;9.74;42.87;92893.72;4954292;29;20118;-76
2021/05/21 00:20:10;;;;;;;1.08;0.63;;;;;;;9.72;43.06;92887.97;4982089;28;20395;-76
2021/05/21 00:22:36;;;;;;;1.15;0.65;;;;;;;9.70;43.15;92889.28;4973872;28;20043;-76
2021/05/21 00:25:03;;;;;;;0.57;0.50;;;;;;;9.66;43.59;92883.84;4973082;28;20421;-76
2021/05/21 00:27:28;;;;;;;0.77;0.50;;;;;;;9.62;44.13;92889.88;4956144;28;20047;-76
2021/05/21 00:29:54;;;;;;;1.23;0.70;;;;;;;9.59;43.82;92885.94;4937271;29;20094;-76
2021/05/21 00:32:19;;;;;;;1.27;0.60;;;;;;;9.56;44.02;92884.66;4954255;29;20031;-75
2021/05/21 00:34:45;;;;;;;0.50;0.50;;;;;;;9.53;44.12;92884.44;4936680;29;20126;-76
2021/05/21 00:37:11;;;;;;;1.25;0.65;;;;;;;9.52;44.18;92883.63;4954251;29;20482;-75
2021/05/21 00:39:36;;;;;;;1.30;0.65;;;;;;;9.51;43.78;92881.31;4948349;28;20576;-76
2021/05/21 00:42:02;;;;;;;1.58;0.70;;;;;;;9.48;43.81;92866.94;4973122;28;20417;-75
2021/05/21 00:44:28;;;;;;;1.30;0.60;;;;;;;9.48;43.61;92866.16;4973218;28;20405;-76
2021/05/21 00:46:53;;;;;;;1.25;0.60;;;;;;;9.45;43.50;92866.69;4957895;28;20402;-76
2021/05/21 00:49:19;;;;;;;2.05;0.70;;;;;;;9.42;43.73;92864.63;4953470;29;20048;-73
2021/05/21 00:51:48;;;;;;;0.75;0.60;;;;;;;9.40;43.61;92869.34;4956846;28;20142;-76
2021/05/21 00:54:16;;;;;;;1.13;0.50;;;;;;;9.35;44.29;92868.31;4953383;28;20130;-75
2021/05/21 00:56:42;;;;;;;1.13;0.60;;;;;;;9.33;44.16;92867.78;4959181;28;20026;-76
2021/05/21 00:59:08;;;;;;;1.30;0.70;;;;;;;9.31;44.08;92872.50;4972730;28;20050;-75
2021/05/21 01:01:34;;;;;;;0.75;0.52;;;;;;;9.33;43.79;92869.63;4957848;28;20051;-75
2021/05/21 01:03:59;;;;;;;2.97;0.70;;;;;;;9.31;43.68;92858.66;4936439;29;20043;-75
2021/05/21 01:06:25;;;;;;;2.78;0.88;;;;;;;9.33;44.03;92857.34;4953125;29;20039;-75
2021/05/21 01:08:51;;;;;;;0.70;0.40;;;;;;;9.33;44.22;92853.97;4953195;29;20043;-76
2021/05/21 01:11:17;;;;;;;1.40;0.60;;;;;;;9.33;44.25;92849.50;4948459;28;20504;-75
2021/05/21 01:13:43;;;;;;;3.10;0.60;;;;;;;9.31;44.18;92840.38;4951836;29;20047;-75
2021/05/21 01:16:09;;;;;;;1.10;0.60;;;;;;;9.31;43.94;92843.75;4953199;29;20043;-75
2021/05/21 01:18:34;;;;;;;0.50;0.50;;;;;;;9.31;44.10;92850.81;4953211;29;20075;-75
2021/05/21 01:21:00;;;;;;;2.45;0.60;;;;;;;9.30;43.96;92844.03;4945637;28;20081;-76
2021/05/21 01:23:26;;;;;;;0.93;0.60;;;;;;;9.29;43.56;92845.09;4971647;28;20098;-74
2021/05/21 01:25:52;;;;;;;1.30;0.70;;;;;;;9.28;43.68;92844.31;4951925;29;20049;-75
2021/05/21 01:28:19;;;;;;;1.38;0.60;;;;;;;9.30;43.58;92844.03;4935673;29;20051;-74
2021/05/21 01:30:46;;;;;;;1.85;0.90;;;;;;;9.29;43.60;92842.47;4952629;28;20494;-75
2021/05/21 01:33:12;;;;;;;0.98;0.70;;;;;;;9.29;43.57;92848.47;4965217;28;20050;-75
2021/05/21 01:35:39;;;;;;;0.50;0.50;;;;;;;9.30;44.07;92851.88;4957080;28;20069;-76
2021/05/21 01:38:06;;;;;;;1.80;0.90;;;;;;;9.31;43.74;92850.81;4942186;29;20039;-76
2021/05/21 01:40:32;;;;;;;0.77;0.60;;;;;;;9.29;44.19;92843.25;4952733;29;20111;-75
2021/05/21 01:43:00;;;;;;;1.63;0.80;;;;;;;9.28;44.39;92846.94;4962846;28;20031;-75
2021/05/21 01:45:25;;;;;;;1.38;0.68;;;;;;;9.29;43.93;92847.69;4956252;28;20051;-76
2021/05/21 01:47:51;;;;;;;6.40;0.75;;;;;;;9.31;44.04;92840.38;4952515;29;20039;-75
2021/05/21 01:50:17;;;;;;;2.17;0.75;;;;;;;9.31;43.97;92838.53;4948731;28;20032;-76
2021/05/21 01:52:46;;;;;;;1.15;0.70;;;;;;;9.32;44.60;92839.31;4944031;29;20059;-75
2021/05/21 01:55:13;;;;;;;0.85;0.60;;;;;;;9.31;44.01;92835.94;4952659;29;20043;-75
2021/05/21 01:57:39;;;;;;;1.05;0.60;;;;;;;9.32;44.40;92834.91;4952616;29;20043;-76
2021/05/21 02:00:07;;;;;;;0.73;0.50;;;;;;;9.32;44.60;92842.72;4960267;28;20093;-75
2021/05/21 02:02:39;;;;;;;0.68;0.57;;;;;;;9.32;44.35;92840.13;4971881;28;20133;-76
2021/05/21 02:05:06;;;;;;;0.70;0.50;;;;;;;9.31;44.71;92838.53;4959044;28;20047;-76
2021/05/21 02:07:32;;;;;;;1.55;0.80;;;;;;;9.31;44.53;92838.53;4954397;28;20042;-74
2021/05/21 02:10:04;;;;;;;3.80;0.88;;;;;;;9.30;44.68;92834.38;4944370;29;20048;-75
2021/05/21 02:12:32;;;;;;;2.42;0.70;;;;;;;9.29;44.33;92830.19;4952428;29;20046;-76
2021/05/21 02:14:59;;;;;;;0.93;0.60;;;;;;;9.31;44.50;92829.94;4952149;29;20046;-76
2021/05/21 02:17:26;;;;;;;1.42;0.60;;;;;;;9.31;44.04;92835.16;4953091;28;20051;-75
2021/05/21 02:19:56;;;;;;;2.00;0.60;;;;;;;9.29;44.78;92829.41;4958960;28;20161;-75
2021/05/21 02:22:22;;;;;;;0.93;0.70;;;;;;;9.27;45.25;92821.84;4971496;28;20119;-76
2021/05/21 02:24:52;;;;;;;1.95;0.80;;;;;;;9.25;45.26;92810.09;4954340;28;20027;-76
2021/05/21 02:27:18;;;;;;;0.95;0.60;;;;;;;9.25;45.41;92816.09;4964069;28;20074;-76
2021/05/21 02:29:44;;;;;;;1.98;0.80;;;;;;;9.27;45.32;92813.22;4937366;28;20097;-77
2021/05/21 02:32:09;;;;;;;1.20;0.50;;;;;;;9.25;45.09;92810.88;4967115;28;20047;-76
2021/05/21 02:34:35;;;;;;;1.33;0.68;;;;;;;9.26;45.81;92806.47;4947323;28;20046;-76
2021/05/21 02:37:00;;;;;;;3.78;0.70;;;;;;;9.26;45.54;92804.63;4937360;28;20047;-76
2021/05/21 02:39:26;;;;;;;1.35;0.77;;;;;;;9.26;45.76;92804.63;4952267;29;20047;-77
2021/05/21 02:41:52;;;;;;;1.88;0.57;;;;;;;9.25;45.11;92799.66;4953536;28;20066;-75
2021/05/21 02:44:18;;;;;;;0.90;0.60;;;;;;;9.22;45.26;92798.38;4974734;28;20043;-76
2021/05/21 02:46:43;;;;;;;2.45;0.60;;;;;;;9.23;45.17;92799.13;4973279;28;20062;-77
2021/05/21 02:49:09;;;;;;;0.98;0.60;;;;;;;9.19;45.22;92791.06;4975326;28;20121;-76
2021/05/21 02:51:35;;;;;;;0.60;0.60;;;;;;;9.17;45.15;92782.72;4975731;28;20053;-77
2021/05/21 02:54:00;;;;;;;2.45;0.82;;;;;;;9.10;45.44;92780.41;4975436;28;20397;-76
2021/05/21 02:56:26;;;;;;;0.55;0.50;;;;;;;9.08;45.83;92773.91;4975325;28;20121;-77
2021/05/21 02:58:52;;;;;;;0.77;0.60;;;;;;;9.05;45.40;92763.97;4978854;28;20040;-77
2021/05/21 03:01:17;;;;;;;0.60;0.47;;;;;;;9.05;45.57;92774.41;4975208;28;20102;-77
2021/05/21 03:03:43;;;;;;;1.15;0.60;;;;;;;9.01;45.31;92782.03;4957772;28;20419;-76
2021/05/21 03:06:09;;;;;;;3.70;0.70;;;;;;;8.98;45.48;92779.16;4975014;28;20054;-74
2021/05/21 03:08:34;;;;;;;1.00;0.63;;;;;;;8.94;45.72;92781.53;4959502;28;20497;-75
2021/05/21 03:11:00;;;;;;;0.98;0.68;;;;;;;8.88;46.17;92775.53;4974712;28;20469;-75
2021/05/21 03:13:26;;;;;;;0.77;0.57;;;;;;;8.81;46.58;92777.66;4941886;28;20117;-75
2021/05/21 03:15:52;;;;;;;0.85;0.60;;;;;;;8.76;46.58;92777.69;4957575;28;20047;-75
2021/05/21 03:18:21;;;;;;;1.67;0.75;;;;;;;8.72;46.70;92781.88;4957376;28;20043;-75
2021/05/21 03:20:48;;;;;;;0.63;0.52;;;;;;;8.67;46.52;92785.28;4956863;28;20057;-75
2021/05/21 03:23:13;;;;;;;0.60;0.60;;;;;;;8.65;46.53;92786.63;4941438;28;20568;-73
2021/05/21 03:25:41;;;;;;;1.42;0.70;;;;;;;8.59;46.55;92791.06;4960688;28;20057;-76
2021/05/21 03:28:07;;;;;;;1.13;0.70;;;;;;;8.58;46.66;92801.75;4992139;28;20034;-77
2021/05/21 03:30:33;;;;;;;1.05;0.60;;;;;;;8.51;47.34;92792.38;4953659;29;20051;-77
2021/05/21 03:32:58;;;;;;;0.60;0.60;;;;;;;8.49;47.22;92789.25;4981002;28;20054;-76
2021/05/21 03:35:24;;;;;;;0.90;0.60;;;;;;;8.45;47.69;92793.44;4956970;28;20105;-76
2021/05/21 03:37:50;;;;;;;2.25;0.70;;;;;;;8.41;47.86;92787.19;4972724;28;20034;-77
2021/05/21 03:40:15;;;;;;;4.07;0.80;;;;;;;8.37;47.99;92786.13;4956824;28;20083;-77
2021/05/21 03:42:41;;;;;;;0.70;0.60;;;;;;;8.34;48.02;92787.44;4968441;28;20529;-76
2021/05/21 03:45:08;;;;;;;1.40;0.80;;;;;;;8.35;48.29;92798.63;4993971;28;20659;-77
2021/05/21 03:47:34;;;;;;;0.60;0.50;;;;;;;8.34;48.11;92808.28;4982230;28;20141;-76
2021/05/21 03:50:01;;;;;;;2.70;0.75;;;;;;;8.33;47.81;92805.94;4993357;28;20042;-75
2021/05/21 03:52:27;;;;;;;2.05;0.80;;;;;;;8.33;48.03;92808.56;4993687;28;20524;-76
2021/05/21 03:54:53;;;;;;;1.67;0.70;;;;;;;8.33;48.25;92811.97;4967540;28;20477;-76
2021/05/21 03:57:23;;;;;;;2.13;0.80;;;;;;;8.33;49.00;92800.72;4977469;28;20030;-75
2021/05/21 03:59:49;;;;;;;1.35;0.80;;;;;;;8.32;48.59;92807.00;4993405;28;20070;-75
2021/05/21 04:02:14;;;;;;;1.83;0.82;;;;;;;8.34;48.63;92807.53;4992541;28;20038;-75
2021/05/21 04:04:40;;;;;;;3.78;0.60;;;;;;;8.34;48.81;92812.75;4991997;28;20126;-75
2021/05/21 04:07:07;;;;;;;1.02;0.80;;;;;;;8.34;48.48;92815.34;4990336;28;20039;-75
2021/05/21 04:09:32;;;;;;;1.02;0.70;;;;;;;8.33;48.38;92803.34;4956229;28;20039;-76
2021/05/21 04:11:59;;;;;;;0.77;0.60;;;;;;;8.35;48.20;92806.47;4977359;28;20034;-75
2021/05/21 04:14:25;;;;;;;1.70;0.70;;;;;;;8.32;48.62;92804.41;4975869;28;20038;-75
2021/05/21 04:16:50;;;;;;;0.80;0.70;;;;;;;8.35;48.11;92801.25;4972056;28;20508;-77
2021/05/21 04:19:16;;;;;;;0.90;0.70;;;;;;;8.40;48.02;92806.50;4956205;28;20051;-76
2021/05/21 04:21:41;;;;;;;0.93;0.50;;;;;;;8.45;48.65;92803.88;4973704;28;20057;-77
2021/05/21 04:24:07;;;;;;;1.20;0.80;;;;;;;8.49;48.16;92804.91;4945116;29;20098;-77
2021/05/21 04:26:33;;;;;;;6.35;2.22;;;;;;;8.54;48.16;92804.13;4957582;28;20063;-77
2021/05/21 04:28:59;;;;;;;9.77;5.20;;;;;;;8.59;48.61;92803.31;4971111;28;20102;-77
2021/05/21 04:31:25;;;;;;;8.95;4.75;;;;;;;8.64;48.48;92813.75;4975501;28;20042;-76
2021/05/21 04:33:51;;;;;;;4.70;2.40;;;;;;;8.67;48.40;92810.59;4986933;28;20058;-76
2021/05/21 04:36:17;;;;;;;2.88;1.50;;;;;;;8.73;48.23;92819.97;4967317;28;20552;-76
2021/05/21 04:38:43;;;;;;;2.90;1.17;;;;;;;8.78;48.00;92822.59;4967632;28;20050;-76
2021/05/21 04:41:09;;;;;;;5.18;1.15;;;;;;;8.86;47.82;92819.41;4975852;28;20054;-78
2021/05/21 04:43:34;;;;;;;1.02;0.70;;;;;;;8.94;47.65;92810.25;4974101;28;20043;-76
2021/05/21 04:46:02;;;;;;;4.47;0.90;;;;;;;8.99;47.68;92805.00;4967358;28;20095;-77
2021/05/21 04:48:28;;;;;;;3.67;0.82;;;;;;;9.07;47.55;92809.66;4962674;28;20067;-77
2021/05/21 04:50:56;;;;;;;1.50;0.90;;;;;;;9.14;47.82;92804.13;4957731;28;20046;-78
2021/05/21 04:53:22;;;;;;;0.93;0.77;;;;;;;9.24;47.89;92805.94;4960168;28;20031;-78
2021/05/21 04:55:47;;;;;;;2.53;1.00;;;;;;;9.34;47.51;92809.28;4965804;28;20089;-78
2021/05/21 04:58:13;;;;;;;2.08;0.90;;;;;;;9.48;47.32;92806.84;4952030;29;20058;-78
2021/05/21 05:00:39;;;;;;;6.15;1.08;;;;;;;9.58;47.80;92798.16;4956167;28;20043;-77
2021/05/21 05:03:15;;;;;;;1.77;0.88;;;;;;;9.78;48.24;92807.69;4963178;28;20493;-77
2021/05/21 05:05:41;;;;;;;1.75;0.90;;;;;;;9.99;47.50;92808.31;4953109;28;20047;-77
2021/05/21 05:08:09;;;;;;;3.20;1.00;;;;;;;10.19;47.52;92808.13;4936228;28;20050;-77
2021/05/21 05:10:35;;;;;;;2.15;0.90;;;;;;;10.40;47.67;92814.00;4953402;28;20102;-78
2021/05/21 05:13:01;;;;;;;1.92;0.70;;;;;;;10.65;47.05;92808.78;4954587;28;20490;-77
2021/05/21 05:15:27;;;;;;;0.75;0.68;;;;;;;10.92;46.87;92809.03;4953631;28;20070;-79
2021/05/21 05:17:53;;;;;;;1.35;0.60;;;;;;;11.18;46.67;92806.09;4947714;28;20050;-79
2021/05/21 05:20:23;;;;;;;3.15;0.95;;;;;;;11.35;42.99;92816.06;4955865;28;20087;-81
2021/05/21 05:22:51;;;;;;;1.58;0.70;;;;;;;11.13;44.33;92819.25;4953282;28;20229;-79
2021/05/21 05:25:17;;;;;;;1.25;0.60;;;;;;;11.21;45.00;92822.03;4956381;28;20031;-79
2021/05/21 05:27:43;;;;;;;0.95;0.70;;;;;;;11.27;45.89;92819.34;4966221;28;20057;-79
2021/05/21 05:30:09;;;;;;;1.73;0.70;;;;;;;11.14;45.80;92820.81;4924078;28;20042;-80
2021/05/21 05:32:35;;;;;;;1.15;0.70;;;;;;;11.15;46.87;92817.13;4963470;28;20046;-79
2021/05/21 05:35:00;;;;;;;1.25;0.75;;;;;;;11.19;46.59;92815.50;4955182;28;20054;-79
2021/05/21 05:37:26;;;;;;;1.15;0.60;;;;;;;11.27;43.50;92820.13;4945997;28;20438;-79
2021/05/21 05:39:52;;;;;;;1.48;0.70;;;;;;;11.30;41.49;92821.38;4948986;28;20047;-78
2021/05/21 05:42:17;;;;;;;1.05;0.70;;;;;;;11.31;43.33;92825.59;4949680;28;20043;-79
2021/05/21 05:44:43;;;;;;;0.93;0.77;;;;;;;11.35;43.99;92829.19;4949167;29;20035;-78
2021/05/21 05:47:09;;;;;;;0.52;0.50;;;;;;;11.44;40.10;92830.91;4962751;28;20062;-78
2021/05/21 05:49:34;;;;;;;1.27;0.70;;;;;;;11.57;40.20;92829.44;4967362;28;20043;-78
2021/05/21 05:52:00;;;;;;;4.93;0.70;;;;;;;11.76;41.41;92829.41;4967356;28;20042;-76
2021/05/21 05:54:29;;;;;;;2.80;0.70;;;;;;;11.83;39.52;92829.06;4966739;28;20043;-79
2021/05/21 05:56:54;;;;;;;9.20;0.88;;;;;;;12.25;39.22;92811.66;4968849;28;20042;-79
2021/05/21 05:59:20;;;;;;;1.45;0.80;;;;;;;12.15;38.02;92809.97;4966855;28;20101;-79
2021/05/21 06:01:46;;;;;;;1.40;0.70;;;;;;;12.15;38.19;92815.22;4970803;28;20078;-80
2021/05/21 06:04:12;;;;;;;3.60;0.77;;;;;;;12.21;40.43;92806.19;4976403;28;20035;-79
2021/05/21 06:06:37;;;;;;;0.88;0.70;;;;;;;12.10;38.98;92820.53;4973832;28;20130;-76
2021/05/21 06:09:04;;;;;;;1.00;0.85;;;;;;;11.86;40.95;92808.28;4972942;28;20446;-79
2021/05/21 06:11:30;;;;;;;1.15;0.80;;;;;;;11.69;43.46;92813.28;4973305;28;20043;-79
2021/05/21 06:13:55;;;;;;;2.15;0.88;;;;;;;11.57;41.54;92805.03;4987955;28;20065;-78
2021/05/21 06:16:21;;;;;;;1.48;0.80;;;;;;;11.86;41.94;92813.50;4972915;28;20055;-78
2021/05/21 06:18:49;;;;;;;1.65;0.73;;;;;;;11.90;40.46;92815.63;4972950;28;20042;-78
2021/05/21 06:21:15;;;;;;;1.63;0.70;;;;;;;12.00;38.16;92813.63;4972728;28;20469;-79
2021/05/21 06:23:43;;;;;;;0.68;0.60;;;;;;;12.46;38.88;92819.97;4972805;28;20045;-79
2021/05/21 06:26:13;;;;;;;1.30;0.60;;;;;;;12.59;38.93;92821.84;4972971;28;20058;-78
2021/05/21 06:28:40;;;;;;;2.33;0.68;;;;;;;12.98;37.67;92815.34;4973080;28;20035;-79
2021/05/21 06:31:06;;;;;;;4.57;0.98;;;;;;;13.20;38.04;92813.88;4956959;28;20045;-76
2021/05/21 06:33:32;;;;;;;3.90;0.93;;;;;;;12.98;37.80;92811.94;4954963;28;20039;-78
2021/05/21 06:35:57;;;;;;;2.40;1.00;;;;;;;13.02;38.48;92812.91;4972766;28;20046;-78
2021/05/21 06:38:23;;;;;;;2.05;0.70;;;;;;;13.02;39.12;92811.06;4972523;28;20058;-78
2021/05/21 06:40:49;;;;;;;1.15;0.70;;;;;;;12.99;37.47;92809.03;4972636;28;20039;-77
2021/05/21 06:43:14;;;;;;;1.80;0.60;;;;;;;12.70;37.53;92811.94;4969712;28;20054;-78
2021/05/21 06:45:41;;;;;;;1.75;0.80;;;;;;;13.02;36.56;92813.69;4970673;28;20054;-78
2021/05/21 06:48:07;;;;;;;1.65;0.80;;;;;;;13.20;37.43;92813.88;4955456;28;20102;-76
2021/05/21 06:50:33;;;;;;;1.40;0.80;;;;;;;13.09;38.26;92819.31;4939788;28;20139;-78
2021/05/21 06:52:59;;;;;;;2.25;0.70;;;;;;;13.01;37.57;92820.00;4954893;28;20075;-79
2021/05/21 06:55:26;;;;;;;1.67;0.80;;;;;;;12.84;38.51;92814.56;4972610;28;20035;-78
2021/05/21 06:57:52;;;;;;;2.95;0.70;;;;;;;12.46;40.04;92812.09;4955050;28;20054;-78
2021/05/21 07:00:18;;;;;;;1.67;0.75;;;;;;;12.46;41.16;92812.09;4972976;28;20461;-78
2021/05/21 07:02:43;;;;;;;1.63;0.90;;;;;;;12.47;42.41;92813.63;4972656;28;20074;-78
2021/05/21 07:05:10;;;;;;;1.00;0.77;;;;;;;12.68;40.34;92811.44;4955108;28;20126;-79
2021/05/21 07:07:36;;;;;;;1.85;0.77;;;;;;;12.35;42.24;92814.09;4970868;28;20400;-76
2021/05/21 07:10:01;;;;;;;2.20;0.88;;;;;;;12.56;39.90;92809.25;4972747;28;20481;-79
2021/05/21 07:12:28;;;;;;;1.77;0.95;;;;;;;12.74;40.54;92796.34;4954717;28;20043;-78
2021/05/21 07:14:54;;;;;;;0.88;0.75;;;;;;;12.94;37.94;92793.34;4939192;28;20518;-79
2021/05/21 07:17:19;;;;;;;1.70;1.00;;;;;;;13.15;38.13;92790.31;4972420;28;20050;-78
2021/05/21 07:19:45;;;;;;;1.55;0.70;;;;;;;13.19;39.69;92801.78;4972212;28;20046;-78
2021/05/21 07:22:11;;;;;;;1.70;0.80;;;;;;;13.10;39.53;92791.97;4935944;29;20407;-78
2021/05/21 07:24:36;;;;;;;2.88;0.80;;;;;;;13.24;40.17;92772.75;4935633;29;20130;-77
2021/05/21 07:27:04;;;;;;;2.00;0.98;;;;;;;13.11;43.35;92764.63;4935919;29;20078;-78
2021/05/21 07:29:29;;;;;;;2.67;0.95;;;;;;;12.98;42.63;92770.66;4955209;28;20056;-78
2021/05/21 07:31:55;;;;;;;1.73;0.80;;;;;;;13.69;40.18;92764.97;4943487;28;20039;-78
2021/05/21 07:34:21;;;;;;;1.15;0.80;;;;;;;14.36;40.23;92770.25;4942326;28;20042;-78
2021/05/21 07:36:47;;;;;;;2.28;0.85;;;;;;;14.55;37.81;92777.16;4974802;28;20163;-79
2021/05/21 07:39:14;;;;;;;1.65;0.80;;;;;;;14.58;37.89;92787.09;4942319;28;20047;-78
2021/05/21 07:41:40;;;;;;;3.10;1.02;;;;;;;14.47;37.35;92776.00;4989816;28;20507;-79
2021/05/21 07:44:07;;;;;;;1.30;0.70;;;;;;;14.33;37.28;92784.00;4942226;28;20043;-79
2021/05/21 07:46:34;;;;;;;4.32;1.10;;;;;;;14.18;39.27;92788.84;4913859;29;20052;-79
2021/05/21 07:49:00;;;;;;;1.95;0.80;;;;;;;14.01;38.92;92792.16;4916648;29;20427;-79
2021/05/21 07:51:26;;;;;;;4.40;0.82;;;;;;;13.67;44.35;92793.47;4919163;29;20132;-79
2021/05/21 07:53:52;;;;;;;3.90;1.00;;;;;;;13.62;43.74;92793.56;4901121;29;20078;-79
2021/05/21 07:56:17;;;;;;;1.92;0.90;;;;;;;13.62;43.10;92793.56;4929783;29;20471;-79
2021/05/21 07:58:43;;;;;;;3.33;0.90;;;;;;;13.48;45.10;92783.84;4950973;29;20079;-79
2021/05/21 08:01:08;;;;;;;2.88;1.13;;;;;;;13.32;45.48;92782.63;4904506;29;20129;-79
2021/05/21 08:03:34;;;;;;;2.70;0.90;;;;;;;13.56;43.61;92773.72;4937028;29;20089;-79
2021/05/21 08:06:00;;;;;;;1.92;0.90;;;;;;;13.81;41.25;92759.97;4919045;29;20572;-79
2021/05/21 08:08:27;;;;;;;3.28;1.00;;;;;;;14.27;40.09;92755.44;4936512;29;20043;-78
2021/05/21 08:10:55;;;;;;;2.38;1.35;;;;;;;13.58;41.10;92751.31;4937480;29;20048;-78
2021/05/21 08:13:21;;;;;;;2.17;0.90;;;;;;;13.77;41.10;92750.34;4951706;29;20054;-78
2021/05/21 08:15:46;;;;;;;4.47;0.70;;;;;;;13.97;42.35;92754.34;4919370;29;20050;-78
2021/05/21 08:18:12;;;;;;;2.30;0.90;;;;;;;14.04;41.84;92755.47;4951379;29;20036;-78
2021/05/21 08:20:39;;;;;;;2.38;0.90;;;;;;;14.17;40.84;92761.75;4953202;29;20055;-78
2021/05/21 08:23:04;;;;;;;1.80;0.88;;;;;;;14.28;38.41;92778.84;4938687;29;20078;-78
2021/05/21 08:25:30;;;;;;;4.22;1.00;;;;;;;14.81;39.36;92779.13;4935512;29;20081;-78
2021/05/21 08:27:56;;;;;;;5.13;0.90;;;;;;;15.12;36.69;92784.34;4936122;29;20046;-78
2021/05/21 08:30:22;;;;;;;1.40;0.80;;;;;;;14.85;38.05;92777.44;4919611;29;20073;-79
2021/05/21 08:32:49;;;;;;;1.55;0.80;;;;;;;15.07;37.65;92776.59;4951278;29;20430;-79
2021/05/21 08:35:20;;;;;;;3.08;0.95;;;;;;;14.66;40.35;92780.28;4936442;29;20503;-79
2021/05/21 08:37:46;;;;;;;5.07;1.00;;;;;;;14.82;39.63;92778.06;4937207;29;20070;-79
2021/05/21 08:40:20;;;;;;;3.45;1.10;;;;;;;14.87;41.08;92783.19;4935281;29;20040;-79
2021/05/21 08:42:46;;;;;;;3.35;1.00;;;;;;;14.29;40.96;92777.75;4950949;28;20059;-78
2021/05/21 08:45:16;;;;;;;3.53;1.05;;;;;;;14.11;41.27;92784.78;4904785;29;20143;-78
2021/05/21 08:47:42;;;;;;;2.22;0.90;;;;;;;14.20;43.25;92771.69;4940080;28;20063;-79
2021/05/21 08:50:10;;;;;;;7.50;1.23;;;;;;;14.15;42.12;92779.69;4974342;28;20516;-76
2021/05/21 08:52:37;;;;;;;3.22;0.80;;;;;;;13.94;42.13;92774.94;4939199;29;20141;-79
2021/05/21 08:55:04;;;;;;;0.85;0.70;;;;;;;14.15;41.82;92782.34;4938756;29;20039;-80
2021/05/21 08:57:31;;;;;;;1.88;0.85;;;;;;;14.15;43.32;92779.69;4963852;28;20038;-80
2021/05/21 08:59:57;;;;;;;1.88;0.80;;;;;;;13.99;42.89;92776.66;4941941;28;20035;-79
2021/05/21 09:02:25;;;;;;;2.33;1.00;;;;;;;13.97;45.13;92783.31;4973692;28;20058;-80
2021/05/21 09:04:57;;;;;;;2.78;0.93;;;;;;;13.99;42.72;92775.91;4975455;28;20101;-80
2021/05/21 09:07:33;;;;;;;2.28;1.00;;;;;;;14.01;44.47;92768.47;4975276;28;20050;-79
2021/05/21 09:10:08;;;;;;;2.63;1.00;;;;;;;14.01;44.69;92763.22;4957975;28;20042;-80
2021/05/21 09:12:52;;;;;;;1.70;0.90;;;;;;;13.81;43.83;92757.34;4957361;28;20497;-79
2021/05/21 09:15:23;;;;;;;3.33;1.00;;;;;;;13.99;44.46;92754.84;4957869;28;20124;-79
2021/05/21 09:18:00;;;;;;;1.00;0.70;;;;;;;14.00;42.26;92761.63;4973081;28;20145;-80
2021/05/21 09:20:35;;;;;;;4.75;1.00;;;;;;;13.91;43.28;92772.88;4974337;28;20409;-80
2021/05/21 09:23:16;;;;;;;1.48;0.95;;;;;;;13.73;44.84;92773.84;4957712;28;20046;-80
2021/05/21 09:25:52;;;;;;;3.28;1.00;;;;;;;14.15;43.98;92771.81;4974112;28;20046;-79
2021/05/21 09:28:33;;;;;;;4.25;1.30;;;;;;;14.13;44.34;92758.94;4958524;28;20062;-80
2021/05/21 09:31:08;;;;;;;4.28;0.93;;;;;;;14.12;44.04;92748.72;4971731;28;20055;-78
2021/05/21 09:33:36;;;;;;;3.50;1.05;;;;;;;14.07;43.17;92751.47;4958584;28;20134;-80
2021/05/21 09:36:02;;;;;;;2.65;0.90;;;;;;;14.13;44.86;92755.53;4975466;28;20111;-80
2021/05/21 09:38:43;;;;;;;3.72;1.05;;;;;;;14.33;44.51;92757.66;4974752;28;20138;-81
2021/05/21 09:41:09;;;;;;;3.70;1.38;;;;;;;14.15;43.58;92756.00;4988895;28;20069;-80
2021/05/21 09:43:35;;;;;;;3.72;1.17;;;;;;;14.28;43.53;92754.38;4972921;28;20089;-78
2021/05/21 09:46:09;;;;;;;6.53;1.20;;;;;;;14.41;44.49;92755.34;4962851;28;20059;-80
2021/05/21 09:48:35;;;;;;;3.30;1.00;;;;;;;14.02;43.96;92759.50;4939628;28;20050;-80
2021/05/21 09:51:00;;;;;;;3.05;1.20;;;;;;;13.60;44.74;92762.31;4956311;28;20134;-78
2021/05/21 09:53:26;;;;;;;2.38;1.05;;;;;;;13.94;44.13;92767.03;4974926;28;20047;-82
2021/05/21 09:55:55;;;;;;;3.30;0.95;;;;;;;13.82;45.92;92761.50;4974373;28;20058;-82
2021/05/21 09:58:28;;;;;;;1.48;0.90;;;;;;;14.27;45.19;92761.50;4942445;28;20039;-80
2021/05/21 10:01:13;;;;;;;4.10;1.25;;;;;;;14.48;44.30;92753.09;4957113;28;20050;-79
2021/05/21 10:03:40;;;;;;;1.88;1.00;;;;;;;14.49;43.85;92741.47;4976143;28;20050;-78
2021/05/21 10:06:06;;;;;;;2.40;1.27;;;;;;;14.01;44.57;92729.00;4974605;28;20102;-79
2021/05/21 10:08:33;;;;;;;6.03;1.20;;;;;;;14.36;44.53;92733.38;4937629;28;20047;-77
2021/05/21 10:10:59;;;;;;;3.67;1.42;;;;;;;14.46;41.63;92729.69;4970233;28;20038;-77
2021/05/21 10:13:26;;;;;;;3.13;1.40;;;;;;;15.52;41.64;92732.28;4969090;28;20579;-81
2021/05/21 10:15:52;;;;;;;4.32;1.60;;;;;;;15.64;38.52;92725.59;4970134;28;20050;-78
2021/05/21 10:18:18;;;;;;;3.67;1.33;;;;;;;15.09;41.62;92740.91;4953551;28;20111;-79
2021/05/21 10:20:45;;;;;;;3.78;1.17;;;;;;;14.64;42.53;92729.78;4975118;28;20134;-79
2021/05/21 10:23:24;;;;;;;5.32;1.70;;;;;;;15.25;39.72;92722.03;4970766;28;20039;-79
2021/05/21 10:25:54;;;;;;;2.38;1.00;;;;;;;15.57;42.11;92718.91;4973069;28;20058;-80
2021/05/21 10:28:26;;;;;;;3.15;1.40;;;;;;;15.32;41.57;92714.41;4957152;28;20156;-79
2021/05/21 10:30:56;;;;;;;4.03;2.05;;;;;;;15.17;39.38;92711.13;4978761;28;20039;-77
2021/05/21 10:33:22;;;;;;;3.78;1.70;;;;;;;15.16;38.64;92727.28;4953237;28;20046;-81
2021/05/21 10:36:15;;;;;;;5.15;1.60;;;;;;;15.61;38.05;92703.25;4966236;28;20081;-79
2021/05/21 10:39:11;;;;;;;3.97;1.48;;;;;;;15.70;38.57;92703.25;4969473;28;20050;-78
2021/05/21 10:41:58;;;;;;;3.20;1.40;;;;;;;14.78;40.34;92707.50;4971982;28;20085;-80
2021/05/21 10:44:28;;;;;;;4.68;1.70;;;;;;;15.11;39.52;92693.94;4959536;28;20062;-78
2021/05/21 10:47:16;;;;;;;2.78;1.58;;;;;;;15.60;40.36;92689.28;4926946;28;787966;-79
2021/05/21 10:50:02;;;;;;;3.70;1.70;;;;;;;15.32;38.17;92688.03;4957099;28;20042;-79
2021/05/21 10:52:54;;;;;;;3.55;1.75;;;;;;;15.14;38.21;92703.84;4927841;29;20079;-79
2021/05/21 10:55:37;;;;;;;3.23;1.70;;;;;;;15.10;39.79;92692.34;4956378;28;20501;-80
2021/05/21 10:58:02;;;;;;;3.03;1.50;;;;;;;15.05;40.52;92689.13;4976518;28;20041;-76
2021/05/21 11:00:28;;;;;;;3.40;1.60;;;;;;;14.63;40.48;92693.97;4981481;28;20051;-79
2021/05/21 11:02:55;;;;;;;2.35;1.50;;;;;;;14.60;40.94;92690.09;5000188;28;20046;-77
2021/05/21 11:05:28;;;;;;;3.80;1.85;;;;;;;14.54;42.05;92701.81;4970819;28;20074;-77
2021/05/21 11:07:56;;;;;;;3.28;1.60;;;;;;;14.35;42.40;92692.31;4982542;28;20042;-77
2021/05/21 11:10:34;;;;;;;3.05;1.50;;;;;;;14.88;41.52;92695.91;4975301;28;20430;-78
2021/05/21 11:13:21;;;;;;;3.55;1.48;;;;;;;15.45;42.27;92704.81;4958171;28;20386;-79
2021/05/21 11:15:48;;;;;;;2.35;1.38;;;;;;;14.91;41.42;92699.78;4975467;28;20047;-78
2021/05/21 11:18:17;;;;;;;4.60;1.50;;;;;;;14.97;41.97;92694.06;4976381;28;20034;-79
2021/05/21 11:20:57;;;;;;;4.90;1.60;;;;;;;14.60;43.36;92684.81;4976365;28;20547;-78
2021/05/21 11:23:29;;;;;;;3.78;1.35;;;;;;;14.87;44.73;92693.56;4958683;28;20130;-79
2021/05/21 11:26:12;;;;;;;2.55;1.33;;;;;;;14.57;43.10;92685.44;4977167;28;20043;-78
2021/05/21 11:28:43;;;;;;;5.00;1.63;;;;;;;14.32;44.63;92674.47;4954425;28;20429;-78
2021/05/21 11:31:22;;;;;;;5.10;1.50;;;;;;;14.15;46.12;92663.88;4983711;28;20603;-80
2021/05/21 11:33:50;;;;;;;4.45;1.30;;;;;;;14.11;46.02;92657.66;4976054;28;20314;-76
2021/05/21 11:36:17;;;;;;;4.28;1.45;;;;;;;14.24;46.23;92640.22;4959074;28;20038;-78
2021/05/21 11:38:42;;;;;;;4.78;1.40;;;;;;;14.66;45.46;92656.47;4974103;28;20642;-76